Time;durP1;ratioP1;P1;durP2;ratioP2;P2;SDS_P1;SDS_P2;PMS_P1;PMS_P2;Temp;Humidity;BMP_temperature;BMP_pressure;BME280_temperature;BME280_humidity;BME280_pressure;Samples;Min_cycle;Max_cycle;Signal;HPM_P1;HPM_P2
2023/02/14 00:01:55;;;;;;;2.17;0.68;;;;;;;;;;5002337;28;20137;-63
2023/02/14 00:04:22;;;;;;;1.52;0.52;;;;;;;;;;5004113;28;20046;-63
2023/02/14 00:06:48;;;;;;;1.95;0.57;;;;;;;;;;5001543;28;20106;-63
2023/02/14 00:09:17;;;;;;;1.77;0.60;;;;;;;;;;5001063;28;20080;-62
2023/02/14 00:11:43;;;;;;;1.92;0.55;;;;;;;;;;5004307;28;20050;-62
2023/02/14 00:16:55;;;;;;;3.67;0.63;;;;;;;;;;5004971;28;20892;-62
2023/02/14 00:19:22;;;;;;;2.75;0.50;;;;;;;;;;5003637;28;20071;-63
2023/02/14 00:21:49;;;;;;;1.88;0.60;;;;;;;;;;5003973;28;20186;-62
2023/02/14 00:24:20;;;;;;;6.53;0.80;;;;;;;;;;5002942;28;20088;-61
2023/02/14 00:26:46;;;;;;;3.33;0.60;;;;;;;;;;5004791;28;20049;-62
2023/02/14 00:29:15;;;;;;;1.77;0.50;;;;;;;;;;5004768;28;20042;-63
2023/02/14 00:31:41;;;;;;;2.85;0.70;;;;;;;;;;5003675;28;20093;-62
2023/02/14 00:34:09;;;;;;;1.73;0.50;;;;;;;;;;5002966;28;20219;-62
2023/02/14 00:36:35;;;;;;;2.22;0.65;;;;;;;;;;5003306;28;20045;-64
2023/02/14 00:39:03;;;;;;;4.35;0.70;;;;;;;;;;5003093;28;20068;-61
2023/02/14 00:41:30;;;;;;;3.17;0.80;;;;;;;;;;5002811;28;20037;-62
2023/02/14 00:43:57;;;;;;;5.97;1.00;;;;;;;;;;5003723;28;20038;-62
2023/02/14 00:46:24;;;;;;;33.92;1.90;;;;;;;;;;5004428;28;20033;-60
2023/02/14 00:48:51;;;;;;;4.85;0.90;;;;;;;;;;5002425;28;20131;-63
2023/02/14 00:51:18;;;;;;;4.53;0.77;;;;;;;;;;5002068;28;20089;-67
2023/02/14 00:53:46;;;;;;;4.95;1.05;;;;;;;;;;5013329;28;20049;-62
2023/02/14 00:56:13;;;;;;;6.25;0.68;;;;;;;;;;5004410;28;20133;-63
2023/02/14 00:58:40;;;;;;;1.98;0.45;;;;;;;;;;5000768;28;20593;-62
2023/02/14 01:01:07;;;;;;;1.25;0.50;;;;;;;;;;5004797;28;20041;-61
2023/02/14 01:03:34;;;;;;;1.35;0.40;;;;;;;;;;5002185;28;20052;-60
2023/02/14 01:06:01;;;;;;;0.98;0.40;;;;;;;;;;5001459;28;22168;-63
2023/02/14 01:08:28;;;;;;;1.80;0.50;;;;;;;;;;5003207;28;20846;-62
2023/02/14 01:10:54;;;;;;;1.70;0.50;;;;;;;;;;5007996;28;20105;-62
2023/02/14 01:13:21;;;;;;;3.78;0.70;;;;;;;;;;5016356;28;20788;-59
2023/02/14 01:15:49;;;;;;;5.28;0.52;;;;;;;;;;5007192;28;20040;-61
2023/02/14 01:18:16;;;;;;;1.73;0.52;;;;;;;;;;5007186;28;20100;-62
2023/02/14 01:20:43;;;;;;;2.75;0.70;;;;;;;;;;5015424;28;20045;-63
2023/02/14 01:23:10;;;;;;;1.85;0.50;;;;;;;;;;5011147;28;21933;-63
2023/02/14 01:25:38;;;;;;;1.60;0.50;;;;;;;;;;5006839;28;20446;-61
2023/02/14 01:28:05;;;;;;;2.05;0.60;;;;;;;;;;5007256;28;21412;-64
2023/02/14 01:30:31;;;;;;;2.42;0.70;;;;;;;;;;5005949;28;20486;-60
2023/02/14 01:32:58;;;;;;;3.65;0.70;;;;;;;;;;5006430;28;20716;-59
2023/02/14 01:35:25;;;;;;;0.90;0.38;;;;;;;;;;5006098;28;20048;-60
2023/02/14 01:37:52;;;;;;;3.30;0.50;;;;;;;;;;5007140;28;20056;-62
2023/02/14 01:40:18;;;;;;;5.45;0.70;;;;;;;;;;5005107;28;20045;-63
2023/02/14 01:42:45;;;;;;;2.65;0.52;;;;;;;;;;5005076;28;20046;-60
2023/02/14 01:45:23;;;;;;;4.40;0.60;;;;;;;;;;5007158;28;20045;-62
2023/02/14 01:47:51;;;;;;;4.88;0.65;;;;;;;;;;5005827;28;20038;-62
2023/02/14 01:50:21;;;;;;;4.65;0.65;;;;;;;;;;5007029;28;20058;-61
2023/02/14 01:52:52;;;;;;;1.73;0.63;;;;;;;;;;5018273;28;20569;-63
2023/02/14 01:55:20;;;;;;;1.92;0.50;;;;;;;;;;5010034;28;20112;-61
2023/02/14 01:57:53;;;;;;;2.95;0.50;;;;;;;;;;5017347;28;20313;-61
2023/02/14 02:03:05;;;;;;;2.00;0.75;;;;;;;;;;5003912;28;20294;-62
2023/02/14 02:05:32;;;;;;;2.15;0.60;;;;;;;;;;5019530;28;20058;-64
2023/02/14 02:08:00;;;;;;;2.22;0.60;;;;;;;;;;5006298;28;20112;-63
2023/02/14 02:10:27;;;;;;;2.92;0.70;;;;;;;;;;5004259;28;20049;-65
2023/02/14 02:12:53;;;;;;;5.50;0.80;;;;;;;;;;5005810;28;20049;-61
2023/02/14 02:15:23;;;;;;;4.50;0.70;;;;;;;;;;5004195;28;20062;-62
2023/02/14 02:18:02;;;;;;;2.85;0.75;;;;;;;;;;5004379;28;20085;-63
2023/02/14 02:20:48;;;;;;;2.85;0.63;;;;;;;;;;5005763;28;20056;-61
2023/02/14 02:23:25;;;;;;;2.83;0.82;;;;;;;;;;4988995;28;20038;-63
2023/02/14 02:26:04;;;;;;;3.00;0.63;;;;;;;;;;5017019;28;20053;-63
2023/02/14 02:28:40;;;;;;;3.75;0.80;;;;;;;;;;5004923;28;20064;-63
2023/02/14 02:31:14;;;;;;;8.18;1.13;;;;;;;;;;5007620;28;20117;-66
2023/02/14 02:33:41;;;;;;;6.13;1.10;;;;;;;;;;4989854;28;21000;-64
2023/02/14 02:36:08;;;;;;;10.48;1.10;;;;;;;;;;4987404;28;20160;-64
2023/02/14 02:38:43;;;;;;;2.85;0.80;;;;;;;;;;5005583;28;20038;-63
2023/02/14 02:41:10;;;;;;;9.15;1.00;;;;;;;;;;5008088;28;20041;-64
2023/02/14 02:43:37;;;;;;;7.75;0.80;;;;;;;;;;5004995;28;20403;-62
2023/02/14 02:53:01;;;;;;;3.15;1.05;;;;;;;;;;5003431;28;20048;-62
2023/02/14 02:54:53;;;;;;;2.63;0.80;;;;;;;;;;5004420;28;20205;-61
2023/02/14 02:57:24;;;;;;;2.83;0.82;;;;;;;;;;5003854;28;20064;-60
2023/02/14 02:59:52;;;;;;;3.22;0.70;;;;;;;;;;5005146;28;20045;-60
2023/02/14 03:04:46;;;;;;;7.43;0.90;;;;;;;;;;5004293;28;20042;-62
2023/02/14 03:05:27;;;;;;;3.42;0.95;;;;;;;;;;5003221;28;20164;-61
2023/02/14 03:07:53;;;;;;;2.30;0.80;;;;;;;;;;5006387;28;20666;-61
2023/02/14 03:10:22;;;;;;;2.60;0.68;;;;;;;;;;5003269;28;20049;-59
2023/02/14 03:13:08;;;;;;;5.65;1.00;;;;;;;;;;5014461;28;20225;-64
2023/02/14 03:15:56;;;;;;;2.50;0.70;;;;;;;;;;4982439;28;20046;-59
2023/02/14 03:18:38;;;;;;;2.70;0.80;;;;;;;;;;5003510;28;20045;-61
2023/02/14 03:21:04;;;;;;;3.15;0.80;;;;;;;;;;5003579;28;20045;-60
2023/02/14 03:23:34;;;;;;;2.15;0.60;;;;;;;;;;5009184;28;20045;-61
2023/02/14 03:26:16;;;;;;;1.35;0.45;;;;;;;;;;5003432;28;20052;-63
2023/02/14 03:28:43;;;;;;;1.55;0.50;;;;;;;;;;5004734;28;20037;-60
2023/02/14 03:31:12;;;;;;;2.13;0.60;;;;;;;;;;5003748;28;20394;-59
2023/02/14 03:33:50;;;;;;;2.40;0.68;;;;;;;;;;5003149;28;20034;-61
2023/02/14 03:36:20;;;;;;;4.28;0.68;;;;;;;;;;5004841;28;20526;-63
2023/02/14 03:38:55;;;;;;;1.55;0.55;;;;;;;;;;5017077;28;20049;-64
2023/02/14 03:41:24;;;;;;;3.20;0.60;;;;;;;;;;5006254;28;20116;-61
2023/02/14 03:43:53;;;;;;;5.75;1.00;;;;;;;;;;5002961;28;20136;-62
2023/02/14 03:46:22;;;;;;;2.15;0.60;;;;;;;;;;5002839;28;20034;-61
2023/02/14 03:48:51;;;;;;;1.58;0.50;;;;;;;;;;5003297;28;20050;-66
2023/02/14 03:51:18;;;;;;;2.28;0.50;;;;;;;;;;5002801;28;20550;-63
2023/02/14 03:53:47;;;;;;;1.60;0.63;;;;;;;;;;5014764;28;20045;-60
2023/02/14 03:56:26;;;;;;;1.60;0.50;;;;;;;;;;5008871;28;20083;-62
2023/02/14 03:58:57;;;;;;;0.82;0.38;;;;;;;;;;5005552;28;20042;-62
2023/02/14 04:01:26;;;;;;;2.90;0.50;;;;;;;;;;5004937;28;20045;-61
2023/02/14 04:03:55;;;;;;;0.98;0.40;;;;;;;;;;5002078;28;20041;-63
2023/02/14 04:06:22;;;;;;;1.33;0.50;;;;;;;;;;5003864;28;20046;-63
2023/02/14 04:08:49;;;;;;;2.38;0.70;;;;;;;;;;5004432;28;20069;-62
2023/02/14 04:11:15;;;;;;;1.83;0.50;;;;;;;;;;5004561;28;20444;-63
2023/02/14 04:13:42;;;;;;;2.47;0.60;;;;;;;;;;5002720;28;20068;-63
2023/02/14 04:16:09;;;;;;;1.58;0.50;;;;;;;;;;5004040;28;20464;-63
2023/02/14 04:21:22;;;;;;;1.55;0.43;;;;;;;;;;5006525;28;20053;-63
2023/02/14 04:23:49;;;;;;;0.98;0.40;;;;;;;;;;4986848;28;20038;-61
2023/02/14 04:26:15;;;;;;;1.10;0.50;;;;;;;;;;5004223;28;20064;-61
2023/02/14 04:28:42;;;;;;;0.40;0.25;;;;;;;;;;5003188;28;20637;-62
2023/02/14 04:31:10;;;;;;;0.75;0.30;;;;;;;;;;5004311;28;20087;-63
2023/02/14 04:33:38;;;;;;;1.13;0.40;;;;;;;;;;5003122;28;20042;-62
2023/02/14 04:36:04;;;;;;;1.38;0.40;;;;;;;;;;4998079;28;20453;-63
2023/02/14 04:38:32;;;;;;;2.05;0.68;;;;;;;;;;5003833;28;20033;-63
2023/02/14 04:40:58;;;;;;;2.42;0.40;;;;;;;;;;5004693;28;20048;-62
2023/02/14 04:43:25;;;;;;;0.55;0.30;;;;;;;;;;5001168;28;20084;-61
2023/02/14 04:45:51;;;;;;;2.08;0.50;;;;;;;;;;5010138;28;20064;-62
2023/02/14 04:48:18;;;;;;;0.65;0.40;;;;;;;;;;5005312;28;20152;-66
2023/02/14 04:50:45;;;;;;;1.02;0.45;;;;;;;;;;5006566;28;20159;-62
2023/02/14 04:53:11;;;;;;;1.00;0.40;;;;;;;;;;5002964;28;20724;-64
2023/02/14 04:55:38;;;;;;;0.80;0.40;;;;;;;;;;5012987;28;20041;-64
2023/02/14 04:58:05;;;;;;;0.95;0.30;;;;;;;;;;5005791;28;20116;-64
2023/02/14 05:00:31;;;;;;;0.47;0.30;;;;;;;;;;5008469;28;20128;-64
2023/02/14 05:02:58;;;;;;;0.70;0.30;;;;;;;;;;5005513;28;20069;-63
2023/02/14 05:05:25;;;;;;;0.93;0.40;;;;;;;;;;5007543;28;20052;-64
2023/02/14 05:07:51;;;;;;;0.52;0.30;;;;;;;;;;5007386;28;20041;-66
2023/02/14 05:10:18;;;;;;;0.82;0.40;;;;;;;;;;5005940;28;20042;-64
2023/02/14 05:12:44;;;;;;;1.10;0.40;;;;;;;;;;5006040;28;20033;-63
2023/02/14 05:15:11;;;;;;;1.02;0.40;;;;;;;;;;5006060;28;20060;-63
2023/02/14 05:17:38;;;;;;;0.88;0.35;;;;;;;;;;5010536;28;20111;-62
2023/02/14 05:20:05;;;;;;;1.48;0.40;;;;;;;;;;5006465;28;20041;-63
2023/02/14 05:22:32;;;;;;;1.48;0.50;;;;;;;;;;5006169;28;20549;-63
2023/02/14 05:24:58;;;;;;;1.45;0.40;;;;;;;;;;5005038;28;20045;-64
2023/02/14 05:27:25;;;;;;;0.85;0.43;;;;;;;;;;5030969;28;20106;-62
2023/02/14 05:29:51;;;;;;;0.68;0.32;;;;;;;;;;5008110;28;20046;-63
2023/02/14 05:32:18;;;;;;;2.35;0.60;;;;;;;;;;5006641;28;20351;-67
2023/02/14 05:34:45;;;;;;;1.05;0.40;;;;;;;;;;5007335;28;20034;-60
2023/02/14 05:37:11;;;;;;;1.75;0.60;;;;;;;;;;5007638;28;20145;-62
2023/02/14 05:39:38;;;;;;;1.48;0.50;;;;;;;;;;5005342;28;20531;-61
2023/02/14 05:42:04;;;;;;;0.75;0.40;;;;;;;;;;5008807;28;20084;-60
2023/02/14 05:44:31;;;;;;;2.10;0.68;;;;;;;;;;5005969;28;20087;-62
2023/02/14 05:46:58;;;;;;;3.17;0.82;;;;;;;;;;5007090;28;20085;-62
2023/02/14 05:49:25;;;;;;;1.75;0.65;;;;;;;;;;5006375;28;20061;-62
2023/02/14 05:51:51;;;;;;;0.95;0.50;;;;;;;;;;5037971;28;20056;-62
2023/02/14 05:54:18;;;;;;;2.13;0.73;;;;;;;;;;5005782;28;20045;-62
2023/02/14 05:56:44;;;;;;;1.33;0.50;;;;;;;;;;5007078;28;20042;-63
2023/02/14 05:59:13;;;;;;;2.17;0.80;;;;;;;;;;5012611;28;20053;-63
2023/02/14 06:01:39;;;;;;;5.15;1.60;;;;;;;;;;5011979;28;20408;-62
2023/02/14 06:04:06;;;;;;;5.32;3.22;;;;;;;;;;5010388;28;20524;-63
2023/02/14 06:06:32;;;;;;;6.30;3.53;;;;;;;;;;5009021;28;20064;-63
2023/02/14 06:08:59;;;;;;;8.93;3.75;;;;;;;;;;5008425;28;20151;-61
2023/02/14 06:11:26;;;;;;;4.90;3.13;;;;;;;;;;5007047;28;20562;-63
2023/02/14 06:13:52;;;;;;;5.40;3.05;;;;;;;;;;5005653;28;20053;-63
2023/02/14 06:16:19;;;;;;;3.60;1.75;;;;;;;;;;5006395;28;20052;-63
2023/02/14 06:18:45;;;;;;;3.95;2.03;;;;;;;;;;5022191;28;20049;-63
2023/02/14 06:21:12;;;;;;;4.18;2.13;;;;;;;;;;5007226;28;20047;-63
2023/02/14 06:23:39;;;;;;;4.35;1.30;;;;;;;;;;5005640;28;20057;-63
2023/02/14 06:26:05;;;;;;;3.53;1.80;;;;;;;;;;5006710;28;20073;-62
2023/02/14 06:28:32;;;;;;;3.97;2.17;;;;;;;;;;5020597;28;20041;-62
2023/02/14 06:30:58;;;;;;;4.88;1.50;;;;;;;;;;5021594;28;20061;-61
2023/02/14 06:33:25;;;;;;;2.05;0.75;;;;;;;;;;5003902;28;20049;-62
2023/02/14 06:35:53;;;;;;;2.13;0.73;;;;;;;;;;5005684;28;20399;-62
2023/02/14 06:38:20;;;;;;;2.45;0.82;;;;;;;;;;5005388;28;20339;-62
2023/02/14 06:40:46;;;;;;;2.60;0.95;;;;;;;;;;5003545;28;20042;-64
2023/02/14 06:43:13;;;;;;;2.97;0.88;;;;;;;;;;5005762;28;20041;-63
2023/02/14 06:45:42;;;;;;;1.63;0.50;;;;;;;;;;5005345;28;20467;-63
2023/02/14 06:48:09;;;;;;;0.57;0.32;;;;;;;;;;5005468;28;20045;-64
2023/02/14 06:50:35;;;;;;;2.22;0.63;;;;;;;;;;5001998;28;20054;-65
2023/02/14 06:53:02;;;;;;;0.82;0.30;;;;;;;;;;5005997;28;20033;-64
2023/02/14 06:55:29;;;;;;;0.65;0.40;;;;;;;;;;5005644;28;20449;-65
2023/02/14 06:57:55;;;;;;;2.40;0.50;;;;;;;;;;5005713;28;20037;-64
2023/02/14 07:00:22;;;;;;;0.82;0.38;;;;;;;;;;5002660;28;20562;-64
2023/02/14 07:02:49;;;;;;;1.25;0.40;;;;;;;;;;5005118;28;20490;-64
2023/02/14 07:05:17;;;;;;;2.00;0.50;;;;;;;;;;5006815;28;20155;-65
2023/02/14 07:07:44;;;;;;;1.42;0.47;;;;;;;;;;5005063;28;20505;-64
2023/02/14 07:10:11;;;;;;;0.55;0.30;;;;;;;;;;5005228;28;20122;-63
2023/02/14 07:12:38;;;;;;;2.70;0.52;;;;;;;;;;5010170;28;20366;-64
2023/02/14 07:15:08;;;;;;;1.10;0.40;;;;;;;;;;5005716;28;20045;-65
2023/02/14 07:17:35;;;;;;;0.73;0.30;;;;;;;;;;5005555;28;20441;-63
2023/02/14 07:20:02;;;;;;;1.25;0.40;;;;;;;;;;5005388;28;20045;-64
2023/02/14 07:22:28;;;;;;;0.82;0.40;;;;;;;;;;5004493;28;20038;-63
2023/02/14 07:24:55;;;;;;;0.80;0.32;;;;;;;;;;5005129;28;20053;-63
2023/02/14 07:27:21;;;;;;;0.90;0.40;;;;;;;;;;5002231;28;20034;-62
2023/02/14 07:29:48;;;;;;;0.70;0.35;;;;;;;;;;5010097;28;20508;-64
2023/02/14 07:32:15;;;;;;;0.98;0.40;;;;;;;;;;5004623;28;20076;-62
2023/02/14 07:34:41;;;;;;;1.50;0.50;;;;;;;;;;5005308;28;20037;-64
2023/02/14 07:37:08;;;;;;;1.80;0.60;;;;;;;;;;5004563;28;20048;-64
2023/02/14 07:39:35;;;;;;;0.73;0.35;;;;;;;;;;5004617;28;20418;-63
2023/02/14 07:42:01;;;;;;;0.73;0.30;;;;;;;;;;5004175;28;20490;-67
2023/02/14 07:44:28;;;;;;;0.98;0.40;;;;;;;;;;5004522;28;20037;-63
2023/02/14 07:46:54;;;;;;;3.45;0.60;;;;;;;;;;5005021;28;20069;-64
2023/02/14 07:49:21;;;;;;;0.20;0.20;;;;;;;;;;5004899;28;20119;-65
2023/02/14 07:51:48;;;;;;;1.67;0.40;;;;;;;;;;5004535;28;20034;-63
2023/02/14 07:54:14;;;;;;;2.03;0.52;;;;;;;;;;5004207;28;20170;-64
2023/02/14 07:56:41;;;;;;;0.90;0.30;;;;;;;;;;5003270;28;20034;-65
2023/02/14 07:59:08;;;;;;;3.38;0.55;;;;;;;;;;5005004;28;20135;-65
2023/02/14 08:01:34;;;;;;;1.35;0.40;;;;;;;;;;5004830;28;20053;-64
2023/02/14 08:04:01;;;;;;;1.08;0.40;;;;;;;;;;5003688;28;20064;-65
2023/02/14 08:06:28;;;;;;;0.85;0.30;;;;;;;;;;5004993;28;20050;-65
2023/02/14 08:08:54;;;;;;;0.55;0.32;;;;;;;;;;5003956;28;20052;-64
2023/02/14 08:14:06;;;;;;;11.52;0.80;;;;;;;;;;5004875;28;20572;-63
2023/02/14 08:16:33;;;;;;;1.35;0.50;;;;;;;;;;5004475;28;20041;-63
2023/02/14 08:19:00;;;;;;;5.20;0.57;;;;;;;;;;5004735;28;20196;-64
2023/02/14 08:21:27;;;;;;;1.70;0.50;;;;;;;;;;5004642;28;20129;-64
2023/02/14 08:23:54;;;;;;;0.28;0.20;;;;;;;;;;5009196;28;20038;-63
2023/02/14 08:26:21;;;;;;;1.58;0.50;;;;;;;;;;5009140;28;20088;-63
2023/02/14 08:28:48;;;;;;;0.90;0.60;;;;;;;;;;5008951;28;20037;-63
2023/02/14 08:31:22;;;;;;;1.38;0.38;;;;;;;;;;5008341;28;20033;-63
2023/02/14 08:33:49;;;;;;;0.43;0.30;;;;;;;;;;5019251;28;20079;-61
2023/02/14 08:36:16;;;;;;;2.97;0.77;;;;;;;;;;5014617;28;20053;-63
2023/02/14 08:38:46;;;;;;;0.57;0.38;;;;;;;;;;5020468;28;20055;-64
2023/02/14 08:41:13;;;;;;;0.75;0.40;;;;;;;;;;5013734;28;20592;-62
2023/02/14 08:43:39;;;;;;;0.57;0.30;;;;;;;;;;5008397;28;20083;-62
2023/02/14 08:46:06;;;;;;;0.43;0.30;;;;;;;;;;4991346;28;20121;-62
2023/02/14 08:48:34;;;;;;;0.75;0.30;;;;;;;;;;5006237;28;20479;-60
2023/02/14 08:51:04;;;;;;;0.55;0.30;;;;;;;;;;5008255;28;20060;-62
2023/02/14 08:53:31;;;;;;;1.02;0.40;;;;;;;;;;5006827;28;20056;-65
2023/02/14 08:56:02;;;;;;;0.50;0.38;;;;;;;;;;5009397;28;20034;-63
2023/02/14 08:58:28;;;;;;;2.95;0.60;;;;;;;;;;5007499;28;20104;-62
2023/02/14 09:00:55;;;;;;;1.15;0.47;;;;;;;;;;5007057;28;20914;-63
2023/02/14 09:03:21;;;;;;;0.75;0.40;;;;;;;;;;5005858;28;20034;-65
2023/02/14 09:05:48;;;;;;;1.10;0.50;;;;;;;;;;5008438;28;20683;-65
2023/02/14 09:08:15;;;;;;;0.38;0.30;;;;;;;;;;5007248;28;20210;-62
2023/02/14 09:10:42;;;;;;;1.25;0.40;;;;;;;;;;5007364;28;20078;-64
2023/02/14 09:13:08;;;;;;;0.43;0.30;;;;;;;;;;5007558;28;20048;-63
2023/02/14 09:15:35;;;;;;;1.48;0.40;;;;;;;;;;5007134;28;20026;-64
2023/02/14 09:18:01;;;;;;;0.65;0.43;;;;;;;;;;5007546;28;20121;-66
2023/02/14 09:20:28;;;;;;;0.75;0.50;;;;;;;;;;5008791;28;20042;-61
2023/02/14 09:22:56;;;;;;;2.47;0.57;;;;;;;;;;5008031;28;20041;-63
2023/02/14 09:25:22;;;;;;;0.47;0.30;;;;;;;;;;5007756;28;20046;-62
2023/02/14 09:27:49;;;;;;;0.85;0.40;;;;;;;;;;4989602;28;20629;-68
2023/02/14 09:30:16;;;;;;;0.38;0.25;;;;;;;;;;5008219;28;20049;-63
2023/02/14 09:32:42;;;;;;;0.52;0.32;;;;;;;;;;5006391;28;20048;-65
2023/02/14 09:37:54;;;;;;;1.50;0.50;;;;;;;;;;5007279;28;20049;-64
2023/02/14 09:40:21;;;;;;;0.25;0.20;;;;;;;;;;5007398;28;20877;-64
2023/02/14 09:42:51;;;;;;;0.20;0.20;;;;;;;;;;5007095;28;20045;-65
2023/02/14 09:45:29;;;;;;;1.05;0.40;;;;;;;;;;5013579;28;20072;-68
2023/02/14 09:47:55;;;;;;;3.53;0.47;;;;;;;;;;5005405;28;20131;-64
2023/02/14 09:50:25;;;;;;;0.25;0.22;;;;;;;;;;5028493;28;20233;-65
2023/02/14 09:52:55;;;;;;;0.43;0.30;;;;;;;;;;5006533;28;20515;-66
2023/02/14 09:55:23;;;;;;;0.55;0.30;;;;;;;;;;5027507;28;20052;-64
2023/02/14 09:58:10;;;;;;;0.40;0.20;;;;;;;;;;5022631;28;21715;-63
2023/02/14 10:01:01;;;;;;;1.40;0.40;;;;;;;;;;5002361;28;20066;-63
2023/02/14 10:03:43;;;;;;;1.25;0.40;;;;;;;;;;5003920;28;20567;-66
2023/02/14 10:06:49;;;;;;;1.55;0.50;;;;;;;;;;4963644;28;20030;-65
2023/02/14 10:09:40;;;;;;;0.28;0.20;;;;;;;;;;4963806;28;20451;-61
2023/02/14 10:12:10;;;;;;;0.65;0.30;;;;;;;;;;4963527;28;20046;-63
2023/02/14 10:14:39;;;;;;;1.92;0.73;;;;;;;;;;4965474;28;20143;-63
2023/02/14 10:17:21;;;;;;;1.38;0.50;;;;;;;;;;4954492;28;20443;-62
2023/02/14 10:19:57;;;;;;;0.20;0.20;;;;;;;;;;4961823;28;20136;-65
2023/02/14 10:22:29;;;;;;;0.38;0.35;;;;;;;;;;4961745;28;21036;-65
2023/02/14 10:25:00;;;;;;;3.45;0.65;;;;;;;;;;4964470;28;20089;-64
2023/02/14 10:27:30;;;;;;;5.93;0.70;;;;;;;;;;4954590;28;20034;-64
2023/02/14 10:29:57;;;;;;;1.20;0.40;;;;;;;;;;4963614;28;20062;-64
2023/02/14 10:32:46;;;;;;;0.90;0.40;;;;;;;;;;4974459;28;20038;-64
2023/02/14 10:35:23;;;;;;;1.35;0.47;;;;;;;;;;4963504;28;20046;-64
2023/02/14 10:37:55;;;;;;;1.55;0.52;;;;;;;;;;4965400;28;20037;-65
2023/02/14 10:40:51;;;;;;;0.98;0.40;;;;;;;;;;4972863;28;20485;-64
2023/02/14 10:43:23;;;;;;;3.60;1.02;;;;;;;;;;4975579;28;20080;-68
2023/02/14 10:45:49;;;;;;;2.78;0.70;;;;;;;;;;4993629;28;20038;-64
2023/02/14 10:48:42;;;;;;;2.88;0.57;;;;;;;;;;5002825;28;20045;-65
2023/02/14 10:51:29;;;;;;;3.92;0.50;;;;;;;;;;4973605;28;20054;-65
2023/02/14 10:54:14;;;;;;;0.40;0.25;;;;;;;;;;5010520;28;20091;-63
2023/02/14 10:56:43;;;;;;;1.45;0.50;;;;;;;;;;5011518;28;20076;-65
2023/02/14 10:59:30;;;;;;;1.15;0.45;;;;;;;;;;5012880;28;20564;-64
2023/02/14 11:01:58;;;;;;;2.75;0.70;;;;;;;;;;5010023;28;20179;-63
2023/02/14 11:04:25;;;;;;;1.65;0.50;;;;;;;;;;5010457;28;20136;-65
2023/02/14 11:06:52;;;;;;;1.88;0.70;;;;;;;;;;4992818;28;20080;-64
2023/02/14 11:09:19;;;;;;;1.45;0.32;;;;;;;;;;5009104;28;20153;-66
2023/02/14 11:11:57;;;;;;;2.45;0.57;;;;;;;;;;5012602;28;20188;-65
2023/02/14 11:14:43;;;;;;;1.75;0.68;;;;;;;;;;4953690;28;20141;-66
2023/02/14 11:17:31;;;;;;;0.75;0.40;;;;;;;;;;4954822;28;20069;-66
2023/02/14 11:20:01;;;;;;;0.68;0.45;;;;;;;;;;4958346;28;20057;-64
2023/02/14 11:22:32;;;;;;;0.77;0.40;;;;;;;;;;4952469;28;20148;-65
2023/02/14 11:25:07;;;;;;;1.30;0.63;;;;;;;;;;4962397;28;20042;-64
2023/02/14 11:27:35;;;;;;;1.48;0.60;;;;;;;;;;4960404;28;20050;-64
2023/02/14 11:30:01;;;;;;;1.95;0.77;;;;;;;;;;4962216;28;20464;-66
2023/02/14 11:32:29;;;;;;;3.20;0.75;;;;;;;;;;4955440;28;20042;-64
2023/02/14 11:35:17;;;;;;;2.38;0.68;;;;;;;;;;4975645;28;20046;-65
2023/02/14 11:37:49;;;;;;;2.67;0.70;;;;;;;;;;4961785;28;20070;-64
2023/02/14 11:40:37;;;;;;;3.00;0.85;;;;;;;;;;4923338;28;20540;-64
2023/02/14 11:43:12;;;;;;;1.75;0.60;;;;;;;;;;4924863;28;20039;-64
2023/02/14 11:45:40;;;;;;;1.88;0.70;;;;;;;;;;4949997;28;20094;-65
2023/02/14 11:48:09;;;;;;;2.85;0.85;;;;;;;;;;4982363;28;20108;-65
2023/02/14 11:50:37;;;;;;;2.00;0.60;;;;;;;;;;4972974;28;20042;-67
2023/02/14 11:53:03;;;;;;;1.83;0.70;;;;;;;;;;4982690;28;20501;-64
2023/02/14 11:55:32;;;;;;;2.47;0.60;;;;;;;;;;4981418;28;20530;-65
2023/02/14 11:58:00;;;;;;;6.68;0.93;;;;;;;;;;4983258;28;20446;-65
2023/02/14 12:00:30;;;;;;;2.08;0.65;;;;;;;;;;4982073;28;20779;-65
2023/02/14 12:02:57;;;;;;;5.53;0.80;;;;;;;;;;4983192;28;20041;-65
2023/02/14 12:05:27;;;;;;;2.05;0.70;;;;;;;;;;4982264;28;20076;-65
2023/02/14 12:07:55;;;;;;;1.70;0.70;;;;;;;;;;4983513;28;20042;-66
2023/02/14 12:10:30;;;;;;;2.03;0.70;;;;;;;;;;4973108;28;20069;-66
2023/02/14 12:13:01;;;;;;;4.05;0.90;;;;;;;;;;4987338;28;20049;-66
2023/02/14 12:15:28;;;;;;;9.95;1.25;;;;;;;;;;4983193;28;20057;-66
2023/02/14 12:18:14;;;;;;;3.95;1.58;;;;;;;;;;5000450;28;20094;-65
2023/02/14 12:20:44;;;;;;;6.57;1.52;;;;;;;;;;5025004;28;20116;-66
2023/02/14 12:23:17;;;;;;;6.97;1.17;;;;;;;;;;5024532;28;20061;-65
2023/02/14 12:25:51;;;;;;;1.02;0.47;;;;;;;;;;5022605;28;20041;-65
2023/02/14 12:28:22;;;;;;;3.00;1.10;;;;;;;;;;5023997;28;20044;-70
2023/02/14 12:30:49;;;;;;;1.90;0.80;;;;;;;;;;5025518;28;20064;-65
2023/02/14 12:33:19;;;;;;;4.85;1.00;;;;;;;;;;5023113;28;20037;-65
2023/02/14 12:35:46;;;;;;;2.45;0.90;;;;;;;;;;5021687;28;20048;-65
2023/02/14 12:38:13;;;;;;;2.08;0.80;;;;;;;;;;5023974;28;20199;-66
2023/02/14 12:40:45;;;;;;;3.92;1.23;;;;;;;;;;5021128;28;20045;-66
2023/02/14 12:43:24;;;;;;;2.88;1.02;;;;;;;;;;5025388;28;20370;-67
2023/02/14 12:46:29;;;;;;;2.83;1.10;;;;;;;;;;5024636;28;20037;-64
2023/02/14 12:48:59;;;;;;;2.72;0.82;;;;;;;;;;4933198;28;20090;-65
2023/02/14 12:51:42;;;;;;;3.05;1.23;;;;;;;;;;4934565;28;20098;-64
2023/02/14 12:54:08;;;;;;;5.82;1.17;;;;;;;;;;4989478;28;20041;-64
2023/02/14 12:56:41;;;;;;;18.20;1.00;;;;;;;;;;5015959;28;20132;-63
2023/02/14 12:59:26;;;;;;;3.55;1.15;;;;;;;;;;5039217;28;20091;-66
2023/02/14 13:01:59;;;;;;;2.83;0.88;;;;;;;;;;4986114;28;20148;-65
2023/02/14 13:04:37;;;;;;;2.65;1.00;;;;;;;;;;5004669;28;20033;-66
2023/02/14 13:07:22;;;;;;;2.92;1.15;;;;;;;;;;5003254;28;20046;-65
2023/02/14 13:10:04;;;;;;;3.17;1.00;;;;;;;;;;5009755;28;20432;-67
2023/02/14 13:12:40;;;;;;;7.03;1.15;;;;;;;;;;4992610;28;20466;-66
2023/02/14 13:15:06;;;;;;;2.72;0.95;;;;;;;;;;5010324;28;20418;-67
2023/02/14 13:17:44;;;;;;;3.90;1.30;;;;;;;;;;5006331;28;20161;-65
2023/02/14 13:20:29;;;;;;;3.60;1.08;;;;;;;;;;5009277;28;20065;-65
2023/02/14 13:22:57;;;;;;;5.53;0.98;;;;;;;;;;5019701;28;20045;-65
2023/02/14 13:25:35;;;;;;;8.65;0.90;;;;;;;;;;5009181;28;20034;-65
2023/02/14 13:28:10;;;;;;;9.05;1.30;;;;;;;;;;5007914;28;20108;-65
2023/02/14 13:30:37;;;;;;;2.55;1.10;;;;;;;;;;5007856;28;20057;-64
2023/02/14 13:33:14;;;;;;;12.48;1.48;;;;;;;;;;5007348;28;20049;-63
2023/02/14 13:35:41;;;;;;;8.52;1.33;;;;;;;;;;5005002;28;20046;-66
2023/02/14 13:38:13;;;;;;;5.25;1.77;;;;;;;;;;4998088;28;20049;-66
2023/02/14 13:40:40;;;;;;;5.65;1.88;;;;;;;;;;5005345;28;20415;-66
2023/02/14 13:43:06;;;;;;;9.15;1.50;;;;;;;;;;5008584;28;20428;-66
2023/02/14 13:45:39;;;;;;;4.95;1.48;;;;;;;;;;5004658;28;20042;-65
2023/02/14 13:48:09;;;;;;;10.45;1.88;;;;;;;;;;5011061;28;20103;-65
2023/02/14 13:50:38;;;;;;;3.58;1.73;;;;;;;;;;5006328;28;20386;-66
2023/02/14 13:53:05;;;;;;;3.35;1.50;;;;;;;;;;5006375;28;20467;-65
2023/02/14 13:55:34;;;;;;;10.98;1.70;;;;;;;;;;5004401;28;20052;-65
2023/02/14 13:58:05;;;;;;;4.28;1.27;;;;;;;;;;5005346;28;20044;-67
2023/02/14 14:00:36;;;;;;;9.02;2.45;;;;;;;;;;5004225;28;20072;-66
2023/02/14 14:03:03;;;;;;;4.07;1.90;;;;;;;;;;4993318;28;20121;-64
2023/02/14 14:05:41;;;;;;;7.63;2.90;;;;;;;;;;5012125;28;20927;-66
2023/02/14 14:08:21;;;;;;;3.78;1.65;;;;;;;;;;5005126;28;20050;-65
2023/02/14 14:10:50;;;;;;;6.15;1.83;;;;;;;;;;5018343;28;20129;-66
2023/02/14 14:13:35;;;;;;;3.50;1.70;;;;;;;;;;5010603;28;20038;-65
2023/02/14 14:16:20;;;;;;;5.05;1.60;;;;;;;;;;5018714;28;20116;-66
2023/02/14 14:18:47;;;;;;;3.70;1.60;;;;;;;;;;5015609;28;20064;-65
2023/02/14 14:21:35;;;;;;;5.25;1.70;;;;;;;;;;5006124;28;20167;-64
2023/02/14 14:24:22;;;;;;;4.00;1.52;;;;;;;;;;5004805;28;20099;-65
2023/02/14 14:26:58;;;;;;;6.93;2.22;;;;;;;;;;5023391;28;20076;-66
2023/02/14 14:29:43;;;;;;;9.45;1.58;;;;;;;;;;5022349;28;20234;-64
2023/02/14 14:32:11;;;;;;;3.42;1.55;;;;;;;;;;5008670;28;20037;-63
2023/02/14 14:34:37;;;;;;;5.90;1.75;;;;;;;;;;5025514;28;20040;-63
2023/02/14 14:37:05;;;;;;;5.03;2.00;;;;;;;;;;5022976;28;20184;-63
2023/02/14 14:39:33;;;;;;;13.32;2.00;;;;;;;;;;5023157;28;20037;-65
2023/02/14 14:42:13;;;;;;;11.02;1.60;;;;;;;;;;5022724;28;20041;-64
2023/02/14 14:44:45;;;;;;;11.73;2.25;;;;;;;;;;5008333;28;20037;-62
2023/02/14 14:47:16;;;;;;;6.35;1.45;;;;;;;;;;5028959;28;20053;-65
2023/02/14 14:49:43;;;;;;;3.33;1.40;;;;;;;;;;5022769;28;20129;-65
2023/02/14 14:52:21;;;;;;;3.08;1.45;;;;;;;;;;5017744;28;20038;-65
2023/02/14 14:54:47;;;;;;;6.07;2.08;;;;;;;;;;5015592;28;20084;-65
2023/02/14 14:57:17;;;;;;;10.85;2.10;;;;;;;;;;5006920;28;20510;-65
2023/02/14 14:59:48;;;;;;;5.43;1.98;;;;;;;;;;5006603;28;20121;-64
2023/02/14 15:02:30;;;;;;;5.47;1.70;;;;;;;;;;5005024;28;20136;-63
2023/02/14 15:04:57;;;;;;;4.45;1.55;;;;;;;;;;5015532;28;20152;-65
2023/02/14 15:07:29;;;;;;;6.68;1.60;;;;;;;;;;5006076;28;20038;-64
2023/02/14 15:09:55;;;;;;;7.03;2.38;;;;;;;;;;4989087;28;20568;-63
2023/02/14 15:15:11;;;;;;;4.82;2.40;;;;;;;;;;5008875;28;20126;-66
2023/02/14 15:17:38;;;;;;;5.53;2.35;;;;;;;;;;5006186;28;20061;-65
2023/02/14 15:20:09;;;;;;;19.45;2.75;;;;;;;;;;5006433;28;20097;-65
2023/02/14 15:22:36;;;;;;;7.05;3.10;;;;;;;;;;5007163;28;20042;-63
2023/02/14 15:25:09;;;;;;;6.40;2.20;;;;;;;;;;4992415;28;20065;-64